Aérodrome :
LOGIN :

S'inscrire | Disclaimer

   EN    FR    IT 

 










Légende :    VFR   VFR Marginal   IFR   IFR Intensif   IFR Très Intensif
Visi : 
Plafond : 
>= 8 km
>= 3000ft
5 à 8 km
1000 à 3000 ft
1500m à 5 km
500 à 1000 ft
800 à 1500m
200 à 500 ft
< 800m
< 200 ft
Symboles :   Orages  Brouillard  Fortes neiges  Fortes précipitations  Vent > 20 kt
SIGMETs :   Divers  Orages  Givrage  Turbulence  Onde Orograph.  Cendres Volcan.






- Altitude de l'aérodrome : 38 ft
- Code IATA : BOH


EGHH - Bournemouth

DERNIER METAR :
  • 261550Z 29015KT 9999 FEW023 08/00 Q1009

METARs EXPIRÉS :
  • 261520Z 29018KT 270V340 9999 FEW030 SCT034 08/01 Q1009
  • 261450Z 30016KT 280V350 9999 FEW038 SCT048 08/01 Q1009
  • 261420Z 30016KT 280V340 9999 FEW038 BKN048 08/01 Q1009
  • 261350Z 30017KT 260V340 9999 FEW036 BKN044 08/02 Q1008
  • 261320Z 30018KT 9999 FEW035 BKN038 08/01 Q1008

TAF TAF EGHH
Valide du 26 à 15h jusqu'au 27 à 00h UTC


261350Z 2615/2624 29015KT 9999 SCT030
TEMPO 2615/2616 28018G30KT
PROB30
TEMPO 2615/2616 7000 SHRA
BECMG 2621/2624 22006KT
ATIS : +44 1202 364 151
Météo : +44 1202 364 158 (TAF)



MET'MAP, la Météo Aéronautique d'un coup d'oeil ! - Copyright ORBIFLY Décembre 2007 - Disclaimer

ORBIFLY MET'MAP TEAM :

Programmation & Développement : Alexandra Zaïnal
Sur une idée originale de : Baudouin d'Aumeries
Assistance à la programmation : Marc-Olivier Méhu
Soutien technique & logistique : Manuel Goepfert

Contact : metmap@orbifly.com




SOURCES & CREDITS :

   NOAA